createdAt,value
2018-12-27T00:01:03.025Z,0
2018-12-27T00:02:14.327Z,0
2018-12-27T00:03:26.697Z,0
2018-12-27T00:04:38.789Z,0
2018-12-27T00:05:50.917Z,0
2018-12-27T00:07:03.184Z,0
2018-12-27T00:08:15.460Z,0
2018-12-27T00:09:27.496Z,0
2018-12-27T00:10:39.784Z,0
2018-12-27T00:11:52.009Z,0
2018-12-27T00:13:04.177Z,0
2018-12-27T00:14:16.364Z,0
2018-12-27T00:15:28.630Z,0
2018-12-27T00:16:40.754Z,0
2018-12-27T00:17:52.984Z,0
2018-12-27T00:19:05.203Z,0
2018-12-27T00:20:17.358Z,0
2018-12-27T00:21:29.519Z,0
2018-12-27T00:22:41.800Z,0
2018-12-27T00:23:53.849Z,0
2018-12-27T00:25:06.154Z,0
2018-12-27T00:26:18.226Z,0
2018-12-27T00:27:30.399Z,0
2018-12-27T00:28:42.667Z,0
2018-12-27T00:29:54.877Z,0
2018-12-27T00:31:07.265Z,0
2018-12-27T00:32:19.350Z,0
2018-12-27T00:33:31.465Z,0
2018-12-27T00:34:43.687Z,0
2018-12-27T00:35:55.841Z,0
2018-12-27T00:37:08.059Z,0
2018-12-27T00:38:20.231Z,0
2018-12-27T00:39:32.485Z,0
2018-12-27T00:40:44.644Z,0
2018-12-27T00:41:56.811Z,0
2018-12-27T00:43:08.947Z,0
2018-12-27T00:44:21.230Z,0
2018-12-27T00:45:33.336Z,0
2018-12-27T00:46:45.680Z,0
2018-12-27T00:47:57.724Z,0
2018-12-27T00:49:10.216Z,0
2018-12-27T00:50:22.113Z,0
2018-12-27T00:51:34.406Z,0
2018-12-27T00:52:46.598Z,0
2018-12-27T00:53:58.755Z,0
2018-12-27T00:55:10.960Z,0
2018-12-27T00:56:23.166Z,0
2018-12-27T00:57:35.359Z,0
2018-12-27T00:58:47.548Z,0
2018-12-27T00:59:59.670Z,0
2018-12-27T01:01:12.029Z,0
2018-12-27T01:02:24.066Z,0
2018-12-27T01:03:36.267Z,0
2018-12-27T01:04:48.546Z,0
2018-12-27T01:06:00.770Z,0
2018-12-27T01:07:12.854Z,0
2018-12-27T01:08:25.208Z,0
2018-12-27T01:09:37.357Z,0
2018-12-27T01:10:49.436Z,0
2018-12-27T01:12:01.630Z,0
2018-12-27T01:13:14.001Z,0
2018-12-27T01:14:26.021Z,0
2018-12-27T01:15:38.447Z,0
2018-12-27T01:16:50.493Z,0
2018-12-27T01:18:02.625Z,0
2018-12-27T01:19:14.797Z,0
2018-12-27T01:20:27.096Z,0
2018-12-27T01:21:39.259Z,0
2018-12-27T01:22:51.670Z,0
2018-12-27T01:24:03.579Z,0
2018-12-27T01:25:15.876Z,0
2018-12-27T01:26:27.967Z,0
2018-12-27T01:27:40.254Z,0
2018-12-27T01:28:52.581Z,0
2018-12-27T01:30:04.671Z,0
2018-12-27T01:31:16.779Z,0
2018-12-27T01:32:28.978Z,0
2018-12-27T01:33:41.187Z,0
2018-12-27T01:34:53.415Z,0
2018-12-27T01:36:05.544Z,0
2018-12-27T01:37:17.821Z,0
2018-12-27T01:38:30.111Z,0
2018-12-27T01:39:42.213Z,0
2018-12-27T01:40:54.483Z,0
2018-12-27T01:42:06.678Z,0
2018-12-27T01:43:18.781Z,0
2018-12-27T01:44:31.051Z,0
2018-12-27T01:45:43.176Z,0
2018-12-27T01:46:55.297Z,0
2018-12-27T01:48:07.576Z,0
2018-12-27T01:49:19.784Z,0
2018-12-27T01:50:31.889Z,0
2018-12-27T01:51:44.214Z,0
2018-12-27T01:52:56.370Z,0
2018-12-27T01:54:08.605Z,0
2018-12-27T01:55:20.788Z,0
2018-12-27T01:56:33.045Z,0
2018-12-27T01:57:45.133Z,0
2018-12-27T01:58:57.340Z,0
2018-12-27T02:00:09.536Z,0
2018-12-27T02:01:21.742Z,0
2018-12-27T02:02:33.853Z,0
2018-12-27T02:03:46.121Z,0
2018-12-27T02:04:58.394Z,0
2018-12-27T02:06:10.551Z,0
2018-12-27T02:07:22.690Z,0
2018-12-27T02:08:34.852Z,0
2018-12-27T02:09:47.023Z,0
2018-12-27T02:10:59.329Z,0
2018-12-27T02:12:11.619Z,0
2018-12-27T02:13:23.701Z,0
2018-12-27T02:14:35.867Z,0
2018-12-27T02:15:47.989Z,0
2018-12-27T02:17:00.264Z,0
2018-12-27T02:18:12.449Z,0
2018-12-27T02:19:24.661Z,0
2018-12-27T02:20:36.929Z,0
2018-12-27T02:21:48.967Z,0
2018-12-27T02:23:01.250Z,0
2018-12-27T02:24:13.453Z,0
2018-12-27T02:25:25.642Z,0
2018-12-27T02:26:37.812Z,0
2018-12-27T02:27:50.110Z,0
2018-12-27T02:29:02.214Z,0
2018-12-27T02:30:14.409Z,0
2018-12-27T02:31:26.652Z,0
2018-12-27T02:32:38.928Z,0
2018-12-27T02:33:50.928Z,0
2018-12-27T02:35:03.214Z,0
2018-12-27T02:36:15.334Z,0
2018-12-27T02:37:27.616Z,0
2018-12-27T02:38:39.798Z,0
2018-12-27T02:39:52.104Z,0
2018-12-27T02:41:04.407Z,0
2018-12-27T02:42:16.389Z,0
2018-12-27T02:43:28.493Z,0
2018-12-27T02:44:40.846Z,0
2018-12-27T02:45:52.965Z,0
2018-12-27T02:47:05.262Z,0
2018-12-27T02:48:17.364Z,0
2018-12-27T02:49:29.677Z,0
2018-12-27T02:50:41.663Z,0
2018-12-27T02:51:53.991Z,0
2018-12-27T02:53:06.778Z,0
2018-12-27T02:54:18.428Z,0
2018-12-27T02:55:30.518Z,0
2018-12-27T02:56:42.735Z,0
2018-12-27T02:57:54.841Z,0
2018-12-27T02:59:07.114Z,0
2018-12-27T03:00:19.308Z,0
2018-12-27T03:01:31.590Z,0
2018-12-27T03:02:43.610Z,0
2018-12-27T03:03:55.969Z,0
2018-12-27T03:05:08.097Z,0
2018-12-27T03:06:20.206Z,0
2018-12-27T03:07:32.460Z,0
2018-12-27T03:08:44.681Z,0
2018-12-27T03:09:56.808Z,0
2018-12-27T03:11:09.086Z,0
2018-12-27T03:12:21.178Z,0
2018-12-27T03:13:33.448Z,0
2018-12-27T03:14:45.570Z,0
2018-12-27T03:15:57.917Z,0
2018-12-27T03:17:10.149Z,0
2018-12-27T03:18:22.328Z,0
2018-12-27T03:19:34.355Z,0
2018-12-27T03:20:46.548Z,0
2018-12-27T03:21:58.815Z,0
2018-12-27T03:23:11.142Z,0
2018-12-27T03:24:23.314Z,0
2018-12-27T03:25:35.427Z,0
2018-12-27T03:26:47.521Z,0
2018-12-27T03:27:59.786Z,0
2018-12-27T03:29:12.025Z,0
2018-12-27T03:30:24.285Z,0
2018-12-27T03:31:36.381Z,0
2018-12-27T03:32:48.748Z,0
2018-12-27T03:34:00.700Z,0
2018-12-27T03:35:13.008Z,0
2018-12-27T03:36:25.206Z,0
2018-12-27T03:37:37.365Z,0
2018-12-27T03:38:49.566Z,0
2018-12-27T03:40:01.744Z,0
2018-12-27T03:41:14.061Z,0
2018-12-27T03:42:26.148Z,0
2018-12-27T03:43:38.279Z,0
2018-12-27T03:44:50.638Z,0
2018-12-27T03:46:02.821Z,0
2018-12-27T03:47:14.940Z,0
2018-12-27T03:48:27.126Z,0
2018-12-27T03:49:39.467Z,0
2018-12-27T03:50:51.515Z,0
2018-12-27T03:52:03.733Z,0
2018-12-27T03:53:15.993Z,0
2018-12-27T03:54:28.204Z,0
2018-12-27T03:55:40.219Z,0
2018-12-27T03:56:52.415Z,0
2018-12-27T03:58:04.734Z,0
2018-12-27T03:59:16.972Z,0
2018-12-27T04:00:29.052Z,0
2018-12-27T04:01:41.293Z,0
2018-12-27T04:02:53.400Z,0
2018-12-27T04:04:05.597Z,0
2018-12-27T04:05:17.860Z,0
2018-12-27T04:06:30.057Z,0
2018-12-27T04:07:42.177Z,0
2018-12-27T04:08:54.545Z,0
2018-12-27T04:10:06.571Z,0
2018-12-27T04:11:18.936Z,0
2018-12-27T04:12:31.040Z,0
2018-12-27T04:13:43.254Z,0
2018-12-27T04:14:55.377Z,0
2018-12-27T04:16:07.718Z,0
2018-12-27T04:17:19.837Z,0
2018-12-27T04:18:32.009Z,0
2018-12-27T04:19:44.245Z,0
2018-12-27T04:20:56.519Z,0
2018-12-27T04:22:08.525Z,0
2018-12-27T04:23:20.842Z,0
2018-12-27T04:24:32.989Z,0
2018-12-27T04:25:45.223Z,0
2018-12-27T04:26:57.301Z,0
2018-12-27T04:28:09.678Z,0
2018-12-27T04:29:21.786Z,0
2018-12-27T04:30:34.025Z,0
2018-12-27T04:31:46.139Z,0
2018-12-27T04:32:58.397Z,0
2018-12-27T04:34:10.504Z,0
2018-12-27T04:35:22.841Z,0
2018-12-27T04:36:34.978Z,0
2018-12-27T04:37:47.243Z,0
2018-12-27T04:38:59.327Z,0
2018-12-27T04:40:11.549Z,0
2018-12-27T04:41:23.842Z,0
2018-12-27T04:42:35.852Z,0
2018-12-27T04:43:48.134Z,0
2018-12-27T04:45:00.405Z,0
2018-12-27T04:46:12.513Z,0
2018-12-27T04:47:24.728Z,0
2018-12-27T04:48:36.955Z,0
2018-12-27T04:49:49.032Z,0
2018-12-27T04:51:01.362Z,0
2018-12-27T04:52:13.474Z,0
2018-12-27T04:53:25.824Z,0
2018-12-27T04:54:37.869Z,0
2018-12-27T04:55:50.005Z,0
2018-12-27T04:57:02.412Z,0
2018-12-27T04:58:14.429Z,0
2018-12-27T04:59:26.765Z,0
2018-12-27T05:00:38.790Z,0
2018-12-27T05:01:51.078Z,0
2018-12-27T05:03:03.196Z,0
2018-12-27T05:04:15.565Z,0
2018-12-27T05:05:27.661Z,0
2018-12-27T05:06:39.865Z,0
2018-12-27T05:07:52.030Z,0
2018-12-27T05:09:04.261Z,0
2018-12-27T05:10:16.386Z,0
2018-12-27T05:11:28.638Z,0
2018-12-27T05:12:40.736Z,0
2018-12-27T05:13:53.002Z,0
2018-12-27T05:15:05.132Z,0
2018-12-27T05:16:17.371Z,0
2018-12-27T05:17:29.615Z,0
2018-12-27T05:18:41.834Z,0
2018-12-27T05:19:53.917Z,0
2018-12-27T05:21:06.309Z,0
2018-12-27T05:22:18.331Z,0
2018-12-27T05:23:30.575Z,0
2018-12-27T05:24:42.785Z,0
2018-12-27T05:25:54.900Z,0
2018-12-27T05:27:07.095Z,0
2018-12-27T05:28:19.406Z,0
2018-12-27T05:29:31.685Z,0
2018-12-27T05:30:43.751Z,0
2018-12-27T05:31:55.870Z,0
2018-12-27T05:33:08.109Z,0
2018-12-27T05:34:20.273Z,0
2018-12-27T05:35:32.635Z,0
2018-12-27T05:36:44.660Z,0
2018-12-27T05:37:56.846Z,0
2018-12-27T05:39:09.046Z,0
2018-12-27T05:40:21.367Z,0
2018-12-27T05:41:33.601Z,0
2018-12-27T05:42:45.746Z,0
2018-12-27T05:43:57.918Z,0
2018-12-27T05:45:10.117Z,0
2018-12-27T05:46:22.302Z,0
2018-12-27T05:47:34.509Z,0
2018-12-27T05:48:46.615Z,0
2018-12-27T05:49:58.914Z,0
2018-12-27T05:51:11.005Z,0
2018-12-27T05:52:23.361Z,0
2018-12-27T05:53:35.568Z,0
2018-12-27T05:54:47.766Z,0
2018-12-27T05:55:59.789Z,0
2018-12-27T05:57:12.167Z,0
2018-12-27T05:58:24.253Z,0
2018-12-27T05:59:36.459Z,0
2018-12-27T06:00:48.581Z,0
2018-12-27T06:02:00.875Z,0
2018-12-27T06:03:12.969Z,0
2018-12-27T06:04:25.255Z,0
2018-12-27T06:05:37.528Z,0
2018-12-27T06:06:49.647Z,0
2018-12-27T06:08:01.744Z,0
2018-12-27T06:09:14.135Z,0
2018-12-27T06:10:26.283Z,0
2018-12-27T06:11:38.458Z,0
2018-12-27T06:12:50.539Z,0
2018-12-27T06:14:02.826Z,0
2018-12-27T06:15:15.025Z,0
2018-12-27T06:16:27.270Z,0
2018-12-27T06:17:39.433Z,0
2018-12-27T06:18:53.773Z,0
2018-12-27T06:20:03.817Z,0
2018-12-27T06:21:16.075Z,0
2018-12-27T06:22:28.092Z,0
2018-12-27T06:23:40.472Z,0
2018-12-27T06:24:52.481Z,0
2018-12-27T06:26:04.778Z,0
2018-12-27T06:27:16.920Z,0
2018-12-27T06:28:29.081Z,0
2018-12-27T06:29:41.368Z,0
2018-12-27T06:30:56.885Z,0
2018-12-27T06:32:05.668Z,0
2018-12-27T06:33:17.940Z,0
2018-12-27T06:34:30.079Z,0
2018-12-27T06:35:42.347Z,0
2018-12-27T06:36:54.445Z,0
2018-12-27T06:38:06.750Z,0
2018-12-27T06:39:18.945Z,0
2018-12-27T06:40:31.221Z,0
2018-12-27T06:41:43.403Z,0
2018-12-27T06:42:55.532Z,0
2018-12-27T06:44:07.623Z,0
2018-12-27T06:45:19.923Z,0
2018-12-27T06:46:32.189Z,0
2018-12-27T06:47:44.301Z,0
2018-12-27T06:48:56.533Z,0
2018-12-27T06:50:08.735Z,0
2018-12-27T06:51:20.793Z,0
2018-12-27T06:52:33.066Z,4
2018-12-27T06:53:45.403Z,4
2018-12-27T06:54:57.549Z,0
2018-12-27T06:56:09.696Z,4
2018-12-27T06:57:21.963Z,0
2018-12-27T06:58:34.082Z,4
2018-12-27T06:59:46.375Z,4
2018-12-27T07:00:58.364Z,4
2018-12-27T07:02:10.558Z,4
2018-12-27T07:03:22.754Z,8
2018-12-27T07:04:34.957Z,12
2018-12-27T07:05:47.321Z,12
2018-12-27T07:06:59.421Z,12
2018-12-27T07:08:11.627Z,16
2018-12-27T07:09:23.870Z,20
2018-12-27T07:10:36.017Z,20
2018-12-27T07:11:48.229Z,24
2018-12-27T07:13:00.398Z,32
2018-12-27T07:14:12.531Z,40
2018-12-27T07:15:24.788Z,48
2018-12-27T07:16:37.045Z,52
2018-12-27T07:17:49.202Z,64
2018-12-27T07:19:01.423Z,72
2018-12-27T07:20:13.779Z,84
2018-12-27T07:21:25.765Z,96
2018-12-27T07:22:37.957Z,108
2018-12-27T07:23:50.274Z,124
2018-12-27T07:25:02.310Z,140
2018-12-27T07:26:14.473Z,160
2018-12-27T07:27:26.691Z,184
2018-12-27T07:28:38.955Z,212
2018-12-27T07:29:51.172Z,248
2018-12-27T07:31:03.329Z,284
2018-12-27T07:32:15.583Z,328
2018-12-27T07:33:27.713Z,364
2018-12-27T07:34:39.989Z,404
2018-12-27T07:35:52.208Z,448
2018-12-27T07:37:04.265Z,484
2018-12-27T07:38:16.524Z,520
2018-12-27T07:39:28.803Z,556
2018-12-27T07:40:40.903Z,600
2018-12-27T07:41:53.121Z,640
2018-12-27T07:43:05.290Z,684
2018-12-27T07:44:17.607Z,732
2018-12-27T07:45:29.611Z,788
2018-12-27T07:46:41.994Z,852
2018-12-27T07:47:54.106Z,928
2018-12-27T07:49:06.195Z,1012
2018-12-27T07:50:18.452Z,1124
2018-12-27T07:51:30.654Z,1276
2018-12-27T07:52:42.868Z,1432
2018-12-27T07:53:55.077Z,1572
2018-12-27T07:55:07.174Z,1692
2018-12-27T07:56:19.371Z,1812
2018-12-27T07:57:31.640Z,1940
2018-12-27T07:58:43.764Z,2072
2018-12-27T07:59:56.063Z,2236
2018-12-27T08:01:08.241Z,2424
2018-12-27T08:02:20.428Z,2628
2018-12-27T08:03:32.542Z,2872
2018-12-27T08:04:44.746Z,3064
2018-12-27T08:05:57.125Z,3108
2018-12-27T08:07:09.207Z,3812
2018-12-27T08:08:21.378Z,4828
2018-12-27T08:09:33.706Z,5932
2018-12-27T08:10:45.726Z,6636
2018-12-27T08:11:58.222Z,6620
2018-12-27T08:13:10.111Z,5900
2018-12-27T08:14:22.304Z,5988
2018-12-27T08:15:34.516Z,6128
2018-12-27T08:16:46.893Z,6004
2018-12-27T08:17:59.005Z,6636
2018-12-27T08:19:11.247Z,6616
2018-12-27T08:20:23.367Z,6828
2018-12-27T08:21:35.484Z,9024
2018-12-27T08:22:47.750Z,9536
2018-12-27T08:23:59.959Z,9344
2018-12-27T08:25:12.146Z,8832
2018-12-27T08:26:24.354Z,8136
2018-12-27T08:27:36.532Z,7712
2018-12-27T08:28:48.724Z,7048
2018-12-27T08:30:01.012Z,6756
2018-12-27T08:31:13.898Z,6520
2018-12-27T08:32:25.449Z,6732
2018-12-27T08:33:37.533Z,6596
2018-12-27T08:34:49.679Z,6236
2018-12-27T08:36:01.973Z,5904
2018-12-27T08:37:14.026Z,5860
2018-12-27T08:38:26.402Z,6056
2018-12-27T08:39:38.407Z,6180
2018-12-27T08:40:50.706Z,6460
2018-12-27T08:42:02.943Z,6708
2018-12-27T08:43:15.093Z,6484
2018-12-27T08:44:27.300Z,6456
2018-12-27T08:45:39.498Z,6528
2018-12-27T08:46:51.754Z,6224
2018-12-27T08:48:03.784Z,6232
2018-12-27T08:49:15.981Z,5984
2018-12-27T08:50:28.268Z,5780
2018-12-27T08:51:40.471Z,5636
2018-12-27T08:52:52.703Z,5736
2018-12-27T08:54:04.860Z,5848
2018-12-27T08:55:17.047Z,5696
2018-12-27T08:56:29.290Z,5584
2018-12-27T08:57:41.442Z,5548
2018-12-27T08:58:53.606Z,5560
2018-12-27T09:00:05.906Z,5628
2018-12-27T09:01:17.980Z,5724
2018-12-27T09:02:30.186Z,5672
2018-12-27T09:03:42.324Z,5456
2018-12-27T09:04:54.602Z,5240
2018-12-27T09:06:06.822Z,5096
2018-12-27T09:07:19.004Z,4964
2018-12-27T09:08:31.244Z,4868
2018-12-27T09:09:43.509Z,4868
2018-12-27T09:10:55.598Z,4944
2018-12-27T09:12:07.875Z,5100
2018-12-27T09:13:19.981Z,5340
2018-12-27T09:14:32.094Z,5456
2018-12-27T09:15:44.274Z,5452
2018-12-27T09:16:56.657Z,5560
2018-12-27T09:18:08.832Z,5640
2018-12-27T09:19:20.925Z,5712
2018-12-27T09:20:33.118Z,5876
2018-12-27T09:21:45.401Z,6116
2018-12-27T09:22:57.605Z,6452
2018-12-27T09:24:09.649Z,6688
2018-12-27T09:25:21.842Z,6704
2018-12-27T09:26:34.165Z,6620
2018-12-27T09:27:46.318Z,6888
2018-12-27T09:28:58.598Z,7180
2018-12-27T09:30:10.820Z,7388
2018-12-27T09:31:22.916Z,7888
2018-12-27T09:32:35.255Z,7932
2018-12-27T09:33:47.387Z,7908
2018-12-27T09:34:59.585Z,8136
2018-12-27T09:36:11.800Z,8768
2018-12-27T09:37:23.806Z,9404
2018-12-27T09:38:36.178Z,10188
2018-12-27T09:39:48.196Z,11412
2018-12-27T09:41:00.530Z,11424
2018-12-27T09:42:12.668Z,11116
2018-12-27T09:43:24.856Z,10576
2018-12-27T09:44:37.003Z,10904
2018-12-27T09:45:49.271Z,11188
2018-12-27T09:47:01.469Z,11232
2018-12-27T09:48:13.751Z,11052
2018-12-27T09:49:25.757Z,11492
2018-12-27T09:50:38.133Z,11592
2018-12-27T09:51:50.229Z,11544
2018-12-27T09:53:02.483Z,11912
2018-12-27T09:54:14.742Z,12600
2018-12-27T09:55:26.830Z,12156
2018-12-27T09:56:39.011Z,11956
2018-12-27T09:57:51.293Z,12308
2018-12-27T09:59:03.517Z,12508
2018-12-27T10:00:15.709Z,12276
2018-12-27T10:01:27.713Z,12568
2018-12-27T10:02:40.039Z,12648
2018-12-27T10:03:52.192Z,12748
2018-12-27T10:05:04.394Z,13392
2018-12-27T10:06:16.740Z,14912
2018-12-27T10:07:28.850Z,15872
2018-12-27T10:08:40.872Z,14848
2018-12-27T10:09:53.156Z,15648
2018-12-27T10:11:06.633Z,15808
2018-12-27T10:12:17.628Z,15008
2018-12-27T10:13:29.645Z,14656
2018-12-27T10:14:42.043Z,14656
2018-12-27T10:15:54.106Z,14784
2018-12-27T10:17:06.379Z,14784
2018-12-27T10:18:18.607Z,14316
2018-12-27T10:19:30.721Z,13720
2018-12-27T10:20:42.889Z,12896
2018-12-27T10:21:56.299Z,12996
2018-12-27T10:23:07.287Z,13548
2018-12-27T10:24:19.524Z,13356
2018-12-27T10:25:31.588Z,12160
2018-12-27T10:26:43.872Z,10476
2018-12-27T10:27:55.981Z,10804
2018-12-27T10:29:08.261Z,12848
2018-12-27T10:30:20.457Z,13432
2018-12-27T10:31:32.650Z,13256
2018-12-27T10:32:44.900Z,13060
2018-12-27T10:33:57.039Z,11372
2018-12-27T10:35:09.139Z,12260
2018-12-27T10:36:21.424Z,14336
2018-12-27T10:37:33.606Z,15360
2018-12-27T10:38:45.717Z,14496
2018-12-27T10:39:58.303Z,15392
2018-12-27T10:41:10.295Z,15360
2018-12-27T10:42:22.392Z,15328
2018-12-27T10:43:34.591Z,15552
2018-12-27T10:44:46.691Z,15328
2018-12-27T10:45:59.050Z,15200
2018-12-27T10:47:11.189Z,13500
2018-12-27T10:48:23.447Z,13008
2018-12-27T10:49:35.468Z,14656
2018-12-27T10:50:47.777Z,15072
2018-12-27T10:51:59.984Z,14156
2018-12-27T10:53:12.112Z,13472
2018-12-27T10:54:24.331Z,12512
2018-12-27T10:55:36.529Z,11660
2018-12-27T10:56:48.623Z,10440
2018-12-27T10:58:00.842Z,10324
2018-12-27T10:59:13.091Z,10312
2018-12-27T11:00:25.385Z,10712
2018-12-27T11:01:38.718Z,11404
2018-12-27T11:02:49.591Z,11348
2018-12-27T11:04:01.861Z,10696
2018-12-27T11:05:14.080Z,9408
2018-12-27T11:06:26.378Z,8784
2018-12-27T11:07:38.501Z,8884
2018-12-27T11:08:50.664Z,8092
2018-12-27T11:10:02.938Z,7616
2018-12-27T11:11:15.039Z,7500
2018-12-27T11:12:27.311Z,7624
2018-12-27T11:13:39.343Z,7728
2018-12-27T11:14:54.213Z,7408
2018-12-27T11:16:04.766Z,7248
2018-12-27T11:17:16.019Z,7304
2018-12-27T11:18:28.220Z,7496
2018-12-27T11:19:40.426Z,8708
2018-12-27T11:20:52.577Z,8448
2018-12-27T11:22:04.851Z,8768
2018-12-27T11:23:16.987Z,8600
2018-12-27T11:24:29.173Z,8388
2018-12-27T11:25:41.345Z,8488
2018-12-27T11:26:53.472Z,8420
2018-12-27T11:28:05.673Z,8372
2018-12-27T11:29:17.950Z,8936
2018-12-27T11:30:30.223Z,9760
2018-12-27T11:31:42.325Z,9324
2018-12-27T11:32:54.546Z,9692
2018-12-27T11:34:06.704Z,9452
2018-12-27T11:35:19.445Z,8728
2018-12-27T11:36:31.185Z,8244
2018-12-27T11:37:43.258Z,7940
2018-12-27T11:38:55.480Z,7720
2018-12-27T11:40:07.594Z,7468
2018-12-27T11:41:19.884Z,7024
2018-12-27T11:42:32.158Z,6740
2018-12-27T11:43:44.249Z,6668
2018-12-27T11:44:56.375Z,6692
2018-12-27T11:46:08.646Z,6644
2018-12-27T11:47:20.768Z,6708
2018-12-27T11:48:33.051Z,6756
2018-12-27T11:49:45.173Z,6812
2018-12-27T11:50:57.342Z,6696
2018-12-27T11:52:09.543Z,6704
2018-12-27T11:53:21.735Z,6640
2018-12-27T11:54:34.029Z,6612
2018-12-27T11:55:46.261Z,6504
2018-12-27T11:56:58.318Z,6408
2018-12-27T11:58:10.507Z,6444
2018-12-27T11:59:22.773Z,6492
2018-12-27T12:00:34.890Z,6520
2018-12-27T12:01:47.190Z,6484
2018-12-27T12:02:59.454Z,6352
2018-12-27T12:04:11.549Z,6188
2018-12-27T12:05:23.667Z,6012
2018-12-27T12:06:36.047Z,5880
2018-12-27T12:07:48.130Z,5840
2018-12-27T12:09:00.251Z,5880
2018-12-27T12:10:12.633Z,5964
2018-12-27T12:11:24.647Z,6092
2018-12-27T12:12:36.848Z,6204
2018-12-27T12:13:49.111Z,6208
2018-12-27T12:15:01.336Z,6232
2018-12-27T12:16:13.421Z,6264
2018-12-27T12:17:25.791Z,6280
2018-12-27T12:18:37.970Z,6304
2018-12-27T12:19:50.177Z,6268
2018-12-27T12:21:02.193Z,6256
2018-12-27T12:22:14.401Z,6184
2018-12-27T12:23:26.580Z,6132
2018-12-27T12:24:38.774Z,6080
2018-12-27T12:25:50.982Z,6008
2018-12-27T12:27:03.233Z,5944
2018-12-27T12:28:15.362Z,5852
2018-12-27T12:29:27.642Z,5748
2018-12-27T12:30:42.240Z,5672
2018-12-27T12:31:52.099Z,5608
2018-12-27T12:33:04.126Z,5544
2018-12-27T12:34:16.344Z,5504
2018-12-27T12:35:28.538Z,5480
2018-12-27T12:36:40.778Z,5480
2018-12-27T12:37:52.910Z,5484
2018-12-27T12:39:05.208Z,5532
2018-12-27T12:40:17.370Z,5568
2018-12-27T12:41:29.516Z,5588
2018-12-27T12:42:41.769Z,5580
2018-12-27T12:43:53.952Z,5572
2018-12-27T12:45:06.150Z,5548
2018-12-27T12:46:18.499Z,5552
2018-12-27T12:47:30.452Z,5504
2018-12-27T12:48:42.663Z,5436
2018-12-27T12:49:54.913Z,5344
2018-12-27T12:51:07.042Z,5192
2018-12-27T12:52:19.277Z,5016
2018-12-27T12:53:31.541Z,4884
2018-12-27T12:54:43.716Z,4792
2018-12-27T12:55:55.812Z,4744
2018-12-27T12:57:08.009Z,4724
2018-12-27T12:58:20.202Z,4684
2018-12-27T12:59:32.419Z,4660
2018-12-27T13:00:44.585Z,4624
2018-12-27T13:01:56.781Z,4620
2018-12-27T13:03:09.042Z,4628
2018-12-27T13:04:21.177Z,4684
2018-12-27T13:05:33.459Z,4700
2018-12-27T13:06:45.737Z,4672
2018-12-27T13:07:57.759Z,4604
2018-12-27T13:09:09.959Z,4520
2018-12-27T13:10:22.148Z,4456
2018-12-27T13:11:34.359Z,4384
2018-12-27T13:12:46.658Z,4336
2018-12-27T13:13:58.722Z,4272
2018-12-27T13:15:11.108Z,4220
2018-12-27T13:16:23.183Z,4192
2018-12-27T13:17:35.310Z,4196
2018-12-27T13:18:47.663Z,4208
2018-12-27T13:19:59.689Z,4188
2018-12-27T13:21:11.952Z,4124
2018-12-27T13:22:24.250Z,4040
2018-12-27T13:23:36.271Z,3924
2018-12-27T13:24:48.579Z,3824
2018-12-27T13:26:00.720Z,3744
2018-12-27T13:27:12.849Z,3680
2018-12-27T13:28:25.041Z,3608
2018-12-27T13:29:37.362Z,3572
2018-12-27T13:30:49.617Z,3560
2018-12-27T13:32:01.627Z,3536
2018-12-27T13:33:13.841Z,3508
2018-12-27T13:34:26.241Z,3500
2018-12-27T13:35:38.288Z,3512
2018-12-27T13:36:50.601Z,3492
2018-12-27T13:38:02.594Z,3448
2018-12-27T13:39:14.863Z,3396
2018-12-27T13:40:26.987Z,3320
2018-12-27T13:41:39.355Z,3260
2018-12-27T13:42:51.464Z,3216
2018-12-27T13:44:03.653Z,3180
2018-12-27T13:45:15.944Z,3152
2018-12-27T13:46:28.051Z,3160
2018-12-27T13:47:40.229Z,3188
2018-12-27T13:48:52.346Z,3216
2018-12-27T13:50:04.544Z,3224
2018-12-27T13:51:16.744Z,3228
2018-12-27T13:52:28.999Z,3212
2018-12-27T13:53:41.313Z,3196
2018-12-27T13:54:53.480Z,3176
2018-12-27T13:56:05.533Z,3140
2018-12-27T13:57:17.698Z,3088
2018-12-27T13:58:29.896Z,2996
2018-12-27T13:59:42.154Z,2860
2018-12-27T14:00:54.372Z,2704
2018-12-27T14:02:06.478Z,2580
2018-12-27T14:03:18.671Z,2480
2018-12-27T14:04:30.936Z,2404
2018-12-27T14:05:46.441Z,2320
2018-12-27T14:06:55.425Z,2288
2018-12-27T14:08:07.468Z,2272
2018-12-27T14:09:20.573Z,2276
2018-12-27T14:10:31.934Z,2264
2018-12-27T14:11:44.043Z,2244
2018-12-27T14:12:56.292Z,2208
2018-12-27T14:14:08.506Z,2180
2018-12-27T14:15:20.606Z,2144
2018-12-27T14:16:32.897Z,2116
2018-12-27T14:17:45.073Z,2080
2018-12-27T14:18:57.358Z,2040
2018-12-27T14:20:09.537Z,2016
2018-12-27T14:21:21.662Z,1984
2018-12-27T14:22:33.865Z,1952
2018-12-27T14:23:46.075Z,1908
2018-12-27T14:24:58.170Z,1864
2018-12-27T14:26:10.351Z,1812
2018-12-27T14:27:22.633Z,1768
2018-12-27T14:28:34.818Z,1724
2018-12-27T14:29:47.006Z,1692
2018-12-27T14:30:59.361Z,1664
2018-12-27T14:32:11.394Z,1628
2018-12-27T14:33:23.515Z,1576
2018-12-27T14:34:35.775Z,1528
2018-12-27T14:35:47.898Z,1480
2018-12-27T14:37:00.093Z,1428
2018-12-27T14:38:12.367Z,1376
2018-12-27T14:39:24.524Z,1328
2018-12-27T14:40:36.678Z,1284
2018-12-27T14:41:49.053Z,1244
2018-12-27T14:43:01.238Z,1212
2018-12-27T14:44:13.280Z,1176
2018-12-27T14:45:25.459Z,1148
2018-12-27T14:46:37.750Z,1116
2018-12-27T14:47:50.963Z,1080
2018-12-27T14:49:02.104Z,1040
2018-12-27T14:50:14.231Z,1000
2018-12-27T14:51:26.492Z,960
2018-12-27T14:52:38.636Z,916
2018-12-27T14:53:50.874Z,868
2018-12-27T14:55:03.097Z,820
2018-12-27T14:56:15.286Z,768
2018-12-27T14:57:27.511Z,724
2018-12-27T14:58:39.660Z,680
2018-12-27T14:59:51.785Z,636
2018-12-27T15:01:04.064Z,596
2018-12-27T15:02:16.292Z,564
2018-12-27T15:03:28.434Z,528
2018-12-27T15:04:40.553Z,496
2018-12-27T15:05:52.843Z,472
2018-12-27T15:07:05.038Z,448
2018-12-27T15:08:17.224Z,424
2018-12-27T15:09:29.406Z,400
2018-12-27T15:10:41.519Z,384
2018-12-27T15:11:53.721Z,364
2018-12-27T15:13:05.975Z,348
2018-12-27T15:14:18.213Z,328
2018-12-27T15:15:30.370Z,304
2018-12-27T15:16:42.495Z,288
2018-12-27T15:17:54.809Z,264
2018-12-27T15:19:06.975Z,240
2018-12-27T15:20:19.163Z,216
2018-12-27T15:21:31.374Z,200
2018-12-27T15:22:43.533Z,180
2018-12-27T15:23:55.665Z,164
2018-12-27T15:25:07.845Z,148
2018-12-27T15:26:20.145Z,132
2018-12-27T15:27:32.375Z,120
2018-12-27T15:28:44.537Z,112
2018-12-27T15:29:56.703Z,100
2018-12-27T15:31:08.901Z,92
2018-12-27T15:32:21.079Z,84
2018-12-27T15:33:33.284Z,76
2018-12-27T15:34:45.494Z,68
2018-12-27T15:35:57.668Z,64
2018-12-27T15:37:09.870Z,60
2018-12-27T15:38:22.066Z,56
2018-12-27T15:39:34.258Z,48
2018-12-27T15:40:46.452Z,44
2018-12-27T15:41:58.567Z,40
2018-12-27T15:43:10.919Z,36
2018-12-27T15:44:23.022Z,32
2018-12-27T15:45:35.164Z,24
2018-12-27T15:46:47.365Z,24
2018-12-27T15:47:59.544Z,20
2018-12-27T15:49:11.735Z,16
2018-12-27T15:50:24.005Z,16
2018-12-27T15:51:36.109Z,12
2018-12-27T15:52:48.386Z,12
2018-12-27T15:54:00.514Z,12
2018-12-27T15:55:12.788Z,4
2018-12-27T15:56:25.044Z,4
2018-12-27T15:57:37.165Z,4
2018-12-27T15:58:49.285Z,4
2018-12-27T16:00:01.544Z,4
2018-12-27T16:01:13.736Z,4
2018-12-27T16:02:25.892Z,4
2018-12-27T16:03:38.135Z,4
2018-12-27T16:04:50.251Z,0
2018-12-27T16:06:02.564Z,0
2018-12-27T16:07:14.738Z,0
2018-12-27T16:08:26.850Z,0
2018-12-27T16:09:39.030Z,0
2018-12-27T16:10:51.308Z,0
2018-12-27T16:12:03.490Z,0
2018-12-27T16:13:15.682Z,0
2018-12-27T16:14:27.811Z,0
2018-12-27T16:15:39.991Z,0
2018-12-27T16:16:52.254Z,0
2018-12-27T16:18:04.456Z,0
2018-12-27T16:19:16.570Z,0
2018-12-27T16:20:28.768Z,0
2018-12-27T16:21:41.068Z,0
2018-12-27T16:22:53.155Z,0
2018-12-27T16:24:05.416Z,0
2018-12-27T16:25:17.557Z,0
2018-12-27T16:26:29.738Z,0
2018-12-27T16:27:41.929Z,0
2018-12-27T16:28:54.207Z,0
2018-12-27T16:30:06.327Z,0
2018-12-27T16:31:18.681Z,0
2018-12-27T16:32:30.776Z,0
2018-12-27T16:33:43.109Z,0
2018-12-27T16:34:55.104Z,0
2018-12-27T16:36:07.290Z,0
2018-12-27T16:37:19.561Z,0
2018-12-27T16:38:31.704Z,0
2018-12-27T16:39:43.964Z,0
2018-12-27T16:40:56.068Z,0
2018-12-27T16:42:08.271Z,0
2018-12-27T16:43:20.650Z,0
2018-12-27T16:44:32.713Z,0
2018-12-27T16:45:44.852Z,0
2018-12-27T16:46:57.208Z,0
2018-12-27T16:48:09.329Z,0
2018-12-27T16:49:21.424Z,0
2018-12-27T16:50:33.692Z,0
2018-12-27T16:51:45.813Z,0